G6LTT Weather Reports


Display with metric or nautical units.
time (UTC)temp
F
wind
direction
speed
MPH
gust
MPH
rain 1hr
in
rain 24hr
in
rain mn
in
humidity
%
barometer
mb
20260505195403 55 43 1.0 7.0 0.00 0.00 0.00 67 1040.5
20260505194503 55 360 2.0 9.0 0.00 0.00 0.00 66 1040.4
20260505193603 55 43 2.0 8.0 0.00 0.00 0.00 66 1040.1
20260505192703 55 59 4.0 8.0 0.00 0.00 0.00 65 1040.2
20260505191803 56 43 2.0 8.0 0.00 0.00 0.00 65 1040.0
20260505190903 56 60 3.0 9.0 0.00 0.00 0.00 64 1040.1
20260505190008 56 59 2.0 9.0 0.00 0.00 0.00 64 1040.0
20260505185403 56 45 1.0 8.0 0.00 0.00 0.00 64 1039.8
20260505184503 57 25 1.0 7.0 0.00 0.00 0.00 64 1040.0
20260505183822 57 39 3.0 8.0 0.00 0.00 0.00 64 1039.8
20260505182914 57 45 2.0 8.0 0.00 0.00 0.00 64 1039.8
20260505181803 58 12 1.0 4.0 0.00 0.00 0.00 60 1039.7
20260505180903 58 43 0.0 6.0 0.00 0.00 0.00 58 1039.6
20260505180216 58 35 2.0 7.0 0.00 0.00 0.00 57 1039.5
20260505175403 59 27 1.0 7.0 0.00 0.00 0.00 56 1039.9
20260505174503 59 24 1.0 7.0 0.00 0.00 0.00 56 1039.8
20260505173603 59 51 1.0 4.0 0.00 0.00 0.00 55 1039.6
20260505172914 60 46 2.0 4.0 0.00 0.00 0.00 54 1039.6
20260505171803 60 3 0.0 4.0 0.00 0.00 0.00 54 1039.6
20260505170903 60 18 1.0 4.0 0.00 0.00 0.00 54 1039.8
20260505170003 60 41 2.0 4.0 0.00 0.00 0.00 54 1039.7
20260505165403 60 23 1.0 2.0 0.00 0.00 0.00 53 1039.8
20260505164503 60 54 1.0 6.0 0.00 0.00 0.00 52 1039.9
20260505163603 60 25 2.0 4.0 0.00 0.00 0.00 51 1039.9
20260505162703 60 47 1.0 8.0 0.00 0.00 0.00 52 1039.9
20260505161803 60 40 1.0 2.0 0.00 0.00 0.00 51 1039.8
20260505160903 61 47 1.0 4.0 0.00 0.00 0.00 49 1039.7
20260505152703 62 37 0.0 4.0 0.00 0.00 0.00 47 1039.7
20260505151803 62 30 0.0 6.0 0.00 0.00 0.00 46 1039.8
20260505150903 62 55 2.0 7.0 0.00 0.00 0.00 46 1039.9
20260505124503 59 29 2.0 4.0 0.00 0.00 0.00 56 1040.3
20260505123815 59 2 2.0 6.0 0.00 0.00 0.00 57 1040.9
20260505122703 59 57 1.0 6.0 0.00 0.00 0.00 58 1040.4
20260505121803 59 38 2.0 7.0 0.00 0.00 0.00 56 1040.4
20260505120903 60 32 4.0 7.0 0.00 0.00 0.00 55 1040.7
20260505120004 60 23 2.0 6.0 0.00 0.00 0.00 54 1040.4
20260505115616 60 55 2.0 7.0 0.00 0.00 0.00 54 1040.5
20260505114716 61 21 2.0 4.0 0.00 0.00 0.00 56 1040.5
20260505113816 61 8 0.0 7.0 0.00 0.00 0.00 52 1040.5
20260505112703 63 92 2.0 6.0 0.00 0.00 0.00 49 1040.4
20260505111803 61 49 3.0 9.0 0.00 0.00 0.00 52 1040.9
20260505110903 61 45 2.0 8.0 0.00 0.00 0.00 54 1040.5
20260505101808 59 44 2.0 9.0 0.00 0.00 0.00 59 1041.3
20260505100903 60 43 0.0 7.0 0.00 0.00 0.00 59 1041.1
20260505100216 59 56 2.0 7.0 0.00 0.00 0.00 62 1041.3
20260505095403 59 47 1.0 9.0 0.00 0.00 0.00 61 1041.5
20260505094503 59 3 2.0 4.0 0.00 0.00 0.00 61 1041.6
20260505093603 56 42 2.0 4.0 0.00 0.00 0.00 69 1041.6
20260505092708 55 51 2.0 9.0 0.00 0.00 0.00 70 1041.5
20260505091803 56 44 2.0 4.0 0.00 0.00 0.00 69 1041.7
20260505090903 54 53 2.0 8.0 0.00 0.00 0.00 73 1041.8
20260505090003 54 68 1.0 4.0 0.00 0.00 0.00 74 1041.6
20260505085403 54 64 0.0 6.0 0.00 0.00 0.00 74 1041.5
20260505084503 54 47 3.0 6.0 0.00 0.00 0.00 75 1041.7
20260505083603 54 58 2.0 7.0 0.00 0.00 0.00 76 1041.9
20260505082703 55 52 2.0 7.0 0.00 0.00 0.00 76 1041.8
20260505081803 55 41 1.0 6.0 0.00 0.00 0.00 75 1041.6
20260505080903 53 67 2.0 9.0 0.00 0.00 0.00 78 1041.5
20260505080003 53 49 2.0 4.0 0.00 0.00 0.00 80 1041.8
20260505075403 53 58 2.0 4.0 0.00 0.00 0.00 81 1041.7
20260505074503 52 57 1.0 4.0 0.00 0.00 0.00 82 1041.6
20260505073813 52 58 2.0 2.0 0.00 0.00 0.00 82 1041.7
20260505072703 52 52 0.0 6.0 0.00 0.00 0.00 83 1041.6
20260505071803 52 45 3.0 6.0 0.00 0.00 0.00 83 1041.8
20260505070903 52 71 0.0 4.0 0.00 0.00 0.00 85 1041.7
20260505070003 51 41 1.0 4.0 0.00 0.00 0.00 85 1041.8
20260505065403 51 342 0.0 2.0 0.00 0.00 0.00 86 1041.6
20260505064503 51 22 0.0 2.0 0.00 0.00 0.00 86 1041.8
20260505063603 51 359 0.0 2.0 0.00 0.00 0.00 87 1041.9
20260505062703 51 359 0.0 2.0 0.00 0.00 0.00 86 1041.7
20260505061803 50 28 0.0 2.0 0.00 0.00 0.00 86 1041.7
20260505060903 50 22 0.0 2.0 0.00 0.00 0.00 86 1041.9
20260505060213 50 22 0.0 2.0 0.00 0.00 0.00 87 1041.8
20260505055403 50 21 0.0 2.0 0.00 0.00 0.00 87 1041.9
20260505054503 50 45 0.0 2.0 0.00 0.00 0.00 87 1042.0
20260505053603 50 67 0.0 2.0 0.00 0.00 0.00 87 1041.9
20260505052917 49 67 0.0 2.0 0.00 0.00 0.00 88 1041.9
20260505051803 49 67 0.0 2.0 0.00 0.00 0.00 88 1042.0
20260505050903 49 67 0.0 2.0 0.00 0.00 0.00 89 1042.0
20260505040903 49 57 1.0 2.0 0.00 0.00 0.00 89 1042.2
20260505040004 49 67 0.0 2.0 0.00 0.00 0.00 89 1042.0
20260505035403 49 67 0.0 2.0 0.00 0.00 0.00 89 1042.1
20260505034713 49 0 0.0 0.0 0.00 0.00 0.00 90 1042.1
20260505033603 49 67 0.0 2.0 0.00 0.00 0.00 89 1042.1
20260505032703 49 67 0.0 2.0 0.00 0.00 0.00 90 1042.1
20260505031803 49 67 0.0 2.0 0.00 0.00 0.00 90 1042.2
20260505030903 49 60 1.0 2.0 0.00 0.00 0.00 90 1041.9
20260505030003 49 54 1.0 2.0 0.00 0.00 0.00 89 1042.1
20260505025403 49 45 0.0 2.0 0.00 0.00 0.00 89 1042.2
20260505024503 50 45 0.0 2.0 0.00 0.00 0.00 88 1042.2
20260505023603 50 42 0.0 2.0 0.00 0.00 0.00 88 1042.0
20260505022703 51 38 0.0 2.0 0.00 0.00 0.00 88 1042.1
20260505021803 51 57 1.0 4.0 0.00 0.00 0.00 87 1042.0
20260505020903 51 71 2.0 4.0 0.00 0.00 0.00 87 1042.0
20260505020003 52 59 1.0 2.0 0.00 0.00 0.00 86 1042.0
20260505015403 52 55 1.0 4.0 0.00 0.00 0.00 86 1042.1
20260505014503 52 46 1.0 4.0 0.00 0.00 0.00 85 1042.4
20260505013603 52 48 0.0 4.0 0.00 0.00 0.00 85 1042.4
20260505012703 52 53 2.0 4.0 0.00 0.00 0.00 85 1042.4
20260505011803 52 64 1.0 4.0 0.00 0.00 0.00 85 1042.4
20260505010903 52 48 0.0 4.0 0.00 0.00 0.00 88 1042.7
20260505010003 53 47 1.0 4.0 0.00 0.00 0.00 88 1042.5
20260505005403 53 37 1.0 2.0 0.00 0.00 0.00 87 1042.7
20260505004503 53 39 0.0 4.0 0.00 0.00 0.00 87 1042.5
20260505003608 53 55 1.0 4.0 0.00 0.00 0.00 87 1042.7
20260505002703 53 47 1.0 2.0 0.00 0.00 0.00 86 1042.7
20260505002012 53 49 1.0 2.0 0.00 0.00 0.00 84 1042.6
20260505000903 53 59 1.0 4.0 0.00 0.00 0.00 83 1042.7
20260505000218 53 64 1.0 4.0 0.00 0.00 0.00 82 1042.8
20260504235403 53 56 0.0 4.0 0.00 0.00 0.00 82 1043.0
20260504234503 53 51 0.0 4.0 0.00 0.00 0.00 82 1042.9
20260504233603 53 62 1.0 4.0 0.00 0.00 0.00 82 1043.0
20260504232703 53 59 2.0 4.0 0.00 0.00 0.00 82 1043.1
20260504231803 53 59 2.0 4.0 0.00 0.00 0.00 82 1043.0
20260504230903 53 52 0.0 4.0 0.00 0.00 0.00 82 1042.9
20260504230003 53 56 1.0 4.0 0.00 0.00 0.00 82 1043.1
20260504225403 53 64 1.0 4.0 0.00 0.00 0.00 82 1043.1
20260504224503 53 51 2.0 4.0 0.00 0.00 0.00 81 1043.0
20260504223603 53 65 0.0 4.0 0.00 0.00 0.00 81 1043.2
20260504222703 53 48 1.0 4.0 0.00 0.00 0.00 81 1043.2
20260504221803 53 46 2.0 6.0 0.00 0.00 0.00 81 1043.3
20260504220903 53 60 1.0 4.0 0.00 0.00 0.00 81 1043.1
20260504220003 54 51 2.0 6.0 0.00 0.00 0.00 80 1043.2
20260504215403 54 48 1.0 7.0 0.00 0.00 0.00 80 1043.5
20260504214503 54 52 2.0 4.0 0.00 0.00 0.00 80 1043.4
20260504213603 54 55 0.0 6.0 0.00 0.00 0.00 80 1043.1
20260504212703 54 56 2.0 6.0 0.00 0.00 0.00 80 1043.3
20260504211803 54 45 2.0 8.0 0.00 0.00 0.00 80 1043.2
20260504210903 54 52 2.0 9.0 0.00 0.00 0.00 80 1043.3
20260504210003 54 44 3.0 8.0 0.00 0.00 0.00 80 1043.7
20260504205403 55 59 2.0 8.0 0.00 0.00 0.00 79 1043.3
20260504204503 55 47 2.0 7.0 0.00 0.00 0.00 80 1043.4
20260504203608 55 50 3.0 8.0 0.00 0.00 0.00 79 1043.3
20260504202703 55 65 0.0 4.0 0.00 0.00 0.00 79 1043.3
20260504201803 56 46 2.0 4.0 0.00 0.00 0.00 79 1043.2
20260504200903 56 41 2.0 4.0 0.00 0.00 0.00 79 1043.3
20260504200003 56 47 0.0 4.0 0.00 0.00 0.00 79 1043.1